createdAt,value
2017-09-13T00:04:29.000Z,20.47
2017-09-13T00:14:29.000Z,20.42
2017-09-13T00:24:29.000Z,20.44
2017-09-13T00:34:29.000Z,20.39
2017-09-13T00:44:29.000Z,20.38
2017-09-13T00:54:29.000Z,20.37
2017-09-13T01:04:29.000Z,20.34
2017-09-13T01:14:29.000Z,20.3
2017-09-13T01:24:29.000Z,20.29
2017-09-13T01:34:29.000Z,20.28
2017-09-13T01:44:29.000Z,20.27
2017-09-13T01:54:29.000Z,20.26
2017-09-13T02:04:29.000Z,20.21
2017-09-13T02:14:29.000Z,20.22
2017-09-13T02:24:29.000Z,20.21
2017-09-13T02:34:29.000Z,20.18
2017-09-13T02:44:29.000Z,20.15
2017-09-13T02:54:29.000Z,20.08
2017-09-13T03:04:29.000Z,20.09
2017-09-13T03:14:29.000Z,20.08
2017-09-13T03:24:29.000Z,20.07
2017-09-13T03:34:29.000Z,19.99
2017-09-13T03:44:29.000Z,20
2017-09-13T03:54:29.000Z,19.99
2017-09-13T04:04:29.000Z,19.97
2017-09-13T04:24:29.000Z,19.94
2017-09-13T04:34:29.000Z,19.91
2017-09-13T04:44:29.000Z,19.9
2017-09-13T04:54:29.000Z,19.89
2017-09-13T05:04:29.000Z,19.87
2017-09-13T05:14:29.000Z,19.85
2017-09-13T05:24:30.000Z,19.83
2017-09-13T05:34:29.000Z,19.83
2017-09-13T05:44:29.000Z,19.8
2017-09-13T05:54:29.000Z,19.72
2017-09-13T06:04:29.000Z,19.73
2017-09-13T06:14:30.000Z,19.71
2017-09-13T06:24:30.000Z,19.76
2017-09-13T06:34:32.000Z,19.77
2017-09-13T06:44:30.000Z,19.64
2017-09-13T06:54:30.000Z,19.64
2017-09-13T07:04:30.000Z,19.73
2017-09-13T07:14:30.000Z,19.77
2017-09-13T07:24:30.000Z,19.87
2017-09-13T07:34:30.000Z,19.96
2017-09-13T07:44:30.000Z,19.88
2017-09-13T07:54:30.000Z,19.72
2017-09-13T08:04:30.000Z,19.66
2017-09-13T08:14:30.000Z,19.65
2017-09-13T08:24:30.000Z,19.69
2017-09-13T08:34:30.000Z,19.7
2017-09-13T08:44:30.000Z,19.82
2017-09-13T08:54:30.000Z,19.91
2017-09-13T09:04:30.000Z,19.82
2017-09-13T09:14:30.000Z,19.92
2017-09-13T09:24:30.000Z,19.88
2017-09-13T09:34:30.000Z,19.86
2017-09-13T09:44:30.000Z,20.02
2017-09-13T09:54:30.000Z,19.99
2017-09-13T10:04:30.000Z,19.98
2017-09-13T10:14:30.000Z,20.22
2017-09-13T10:24:30.000Z,20.31
2017-09-13T10:34:30.000Z,20.44
2017-09-13T10:44:40.000Z,20.53
2017-09-13T10:54:40.000Z,20.67
2017-09-13T11:04:40.000Z,20.71
2017-09-13T11:14:41.000Z,20.83
2017-09-13T11:24:41.000Z,20.82
2017-09-13T11:34:41.000Z,20.78
2017-09-13T11:44:41.000Z,20.95
2017-09-13T11:54:41.000Z,20.94
2017-09-13T12:04:41.000Z,21.03
2017-09-13T12:14:41.000Z,20.99
2017-09-13T12:24:41.000Z,21.03
2017-09-13T12:34:41.000Z,21.01
2017-09-13T12:44:41.000Z,21.09
2017-09-13T12:54:41.000Z,21.13
2017-09-13T13:04:41.000Z,21.06
2017-09-13T13:14:41.000Z,21.02
2017-09-13T13:24:41.000Z,21.03
2017-09-13T13:34:41.000Z,20.98
2017-09-13T13:44:41.000Z,20.97
2017-09-13T13:54:41.000Z,20.98
2017-09-13T14:04:41.000Z,20.98
2017-09-13T14:14:41.000Z,20.98
2017-09-13T14:24:41.000Z,20.96
2017-09-13T14:34:41.000Z,20.96
2017-09-13T14:44:41.000Z,20.92
2017-09-13T14:54:41.000Z,20.93
2017-09-13T15:04:41.000Z,21.11
2017-09-13T15:14:41.000Z,21.02
2017-09-13T15:24:41.000Z,21.05
2017-09-13T15:34:41.000Z,21.03
2017-09-13T15:44:41.000Z,21.21
2017-09-13T15:54:41.000Z,21.1
2017-09-13T16:04:41.000Z,21.03
2017-09-13T16:14:41.000Z,21.01
2017-09-13T16:24:41.000Z,20.96
2017-09-13T16:34:41.000Z,21.04
2017-09-13T16:44:41.000Z,21.2
2017-09-13T16:54:41.000Z,21.04
2017-09-13T17:04:41.000Z,20.95
2017-09-13T17:14:41.000Z,21.01
2017-09-13T17:24:41.000Z,20.91
2017-09-13T17:34:41.000Z,20.84
2017-09-13T17:44:41.000Z,20.82
2017-09-13T17:54:41.000Z,20.77
2017-09-13T18:04:41.000Z,20.72
2017-09-13T18:14:41.000Z,20.66
2017-09-13T18:24:41.000Z,20.91
2017-09-13T18:34:41.000Z,21.04
2017-09-13T18:44:41.000Z,21.01
2017-09-13T18:54:41.000Z,20.73
2017-09-13T19:04:41.000Z,20.63
2017-09-13T19:14:41.000Z,20.57
2017-09-13T19:24:41.000Z,20.55
2017-09-13T19:34:41.000Z,20.68
2017-09-13T19:44:42.000Z,20.74
2017-09-13T19:54:42.000Z,20.84
2017-09-13T20:04:42.000Z,20.9
2017-09-13T20:14:42.000Z,20.89
2017-09-13T20:24:42.000Z,20.92
2017-09-13T20:34:46.000Z,20.88
2017-09-13T20:44:42.000Z,20.9
2017-09-13T20:54:42.000Z,20.89
2017-09-13T21:04:42.000Z,20.82
2017-09-13T21:14:42.000Z,20.84
2017-09-13T21:24:42.000Z,20.8
2017-09-13T21:34:42.000Z,20.76
2017-09-13T21:44:42.000Z,20.72
2017-09-13T21:54:42.000Z,20.68
2017-09-13T22:04:42.000Z,20.63
2017-09-13T22:14:42.000Z,20.6
2017-09-13T22:24:42.000Z,20.57
2017-09-13T22:34:42.000Z,20.53
2017-09-13T22:44:42.000Z,20.48
2017-09-13T22:54:42.000Z,20.46
2017-09-13T23:04:42.000Z,20.42
2017-09-13T23:14:42.000Z,20.4
2017-09-13T23:24:45.000Z,20.38
2017-09-13T23:34:42.000Z,20.34
2017-09-13T23:44:42.000Z,20.3
2017-09-13T23:54:42.000Z,20.28
